createdAt,value
2023-02-11T00:01:32.930Z,4.19
2023-02-11T00:04:02.381Z,4.22
2023-02-11T00:06:32.600Z,4.26
2023-02-11T00:09:01.872Z,4.27
2023-02-11T00:11:30.734Z,4.28
2023-02-11T00:14:05.461Z,4.29
2023-02-11T00:16:34.175Z,4.30
2023-02-11T00:19:05.663Z,4.29
2023-02-11T00:21:35.922Z,4.31
2023-02-11T00:24:04.322Z,4.33
2023-02-11T00:26:35.458Z,4.36
2023-02-11T00:29:04.684Z,4.38
2023-02-11T00:31:33.490Z,4.39
2023-02-11T00:34:01.795Z,4.40
2023-02-11T00:36:30.946Z,4.41
2023-02-11T00:39:00.205Z,4.40
2023-02-11T00:41:29.714Z,4.35
2023-02-11T00:44:01.103Z,4.35
2023-02-11T00:46:29.424Z,4.34
2023-02-11T00:48:58.061Z,4.36
2023-02-11T00:51:29.507Z,4.35
2023-02-11T00:53:57.544Z,4.32
2023-02-11T00:56:25.617Z,4.33
2023-02-11T00:58:54.329Z,4.34
2023-02-11T01:01:22.444Z,4.32
2023-02-11T01:03:50.927Z,4.32
2023-02-11T01:06:19.260Z,4.31
2023-02-11T01:08:47.292Z,4.32
2023-02-11T01:11:18.657Z,4.32
2023-02-11T01:13:48.853Z,4.28
2023-02-11T01:16:18.087Z,4.24
2023-02-11T01:18:47.428Z,4.24
2023-02-11T01:21:16.332Z,4.22
2023-02-11T01:23:44.582Z,4.20
2023-02-11T01:26:13.427Z,4.19
2023-02-11T01:28:41.471Z,4.21
2023-02-11T01:31:09.584Z,4.19
2023-02-11T01:33:37.667Z,4.16
2023-02-11T01:36:08.271Z,4.16
2023-02-11T01:38:36.969Z,4.17
2023-02-11T01:41:08.359Z,4.15
2023-02-11T01:43:43.516Z,4.17
2023-02-11T01:46:28.157Z,4.17
2023-02-11T01:49:02.783Z,4.15
2023-02-11T01:51:38.999Z,4.16
2023-02-11T01:54:39.687Z,4.19
2023-02-11T01:57:25.077Z,4.14
2023-02-11T02:00:24.312Z,4.12
2023-02-11T02:02:55.404Z,4.13
2023-02-11T02:05:35.047Z,4.14
2023-02-11T02:08:03.143Z,4.17
2023-02-11T02:10:31.706Z,4.19
2023-02-11T02:12:59.773Z,4.23
2023-02-11T02:15:34.655Z,4.26
2023-02-11T02:18:09.854Z,4.24
2023-02-11T02:20:50.753Z,4.20
2023-02-11T02:23:39.058Z,4.18
2023-02-11T02:26:26.174Z,4.14
2023-02-11T02:28:57.003Z,4.14
2023-02-11T02:31:39.962Z,4.16
2023-02-11T02:34:20.798Z,4.14
2023-02-11T02:36:58.248Z,4.08
2023-02-11T02:39:31.825Z,4.02
2023-02-11T02:42:00.033Z,3.97
2023-02-11T02:44:29.204Z,3.98
2023-02-11T02:46:58.434Z,3.98
2023-02-11T02:49:26.449Z,4.01
2023-02-11T02:52:19.433Z,4.04
2023-02-11T02:55:01.913Z,4.03
2023-02-11T02:57:45.684Z,4.05
2023-02-11T03:00:25.755Z,4.04
2023-02-11T03:03:18.918Z,4.06
2023-02-11T03:05:57.507Z,4.05
2023-02-11T03:08:33.585Z,4.05
2023-02-11T03:11:03.161Z,4.03
2023-02-11T03:13:36.024Z,4.05
2023-02-11T03:16:28.145Z,4.06
2023-02-11T03:19:21.257Z,4.03
2023-02-11T03:21:52.110Z,4.01
2023-02-11T03:24:36.990Z,4.03
2023-02-11T03:27:20.621Z,4.05
2023-02-11T03:30:05.693Z,4.08
2023-02-11T03:32:40.276Z,4.09
2023-02-11T03:35:23.441Z,4.11
2023-02-11T03:38:00.621Z,4.14
2023-02-11T03:40:32.794Z,4.18
2023-02-11T03:43:07.361Z,4.21
2023-02-11T03:45:37.470Z,4.23
2023-02-11T03:48:14.712Z,4.24
2023-02-11T03:50:45.739Z,4.24
2023-02-11T03:53:14.973Z,4.24
2023-02-11T03:55:44.382Z,4.27
2023-02-11T03:58:12.452Z,4.27
2023-02-11T04:00:42.689Z,4.29
2023-02-11T04:03:11.648Z,4.29
2023-02-11T04:05:40.733Z,4.31
2023-02-11T04:08:08.903Z,4.29
2023-02-11T04:10:37.188Z,4.29
2023-02-11T04:13:05.137Z,4.25
2023-02-11T04:15:33.632Z,4.26
2023-02-11T04:18:03.545Z,4.25
2023-02-11T04:20:31.584Z,4.26
2023-02-11T04:22:59.679Z,4.27
2023-02-11T04:25:27.830Z,4.30
2023-02-11T04:27:55.950Z,4.32
2023-02-11T04:30:25.335Z,4.36
2023-02-11T04:32:54.520Z,4.39
2023-02-11T04:35:22.629Z,4.39
2023-02-11T04:37:50.662Z,4.40
2023-02-11T04:40:18.852Z,4.38
2023-02-11T04:42:46.931Z,4.39
2023-02-11T04:45:15.006Z,4.36
2023-02-11T04:47:43.055Z,4.32
2023-02-11T04:50:11.222Z,4.32
2023-02-11T04:52:39.312Z,4.33
2023-02-11T04:55:07.577Z,4.31
2023-02-11T04:57:35.612Z,4.32
2023-02-11T05:00:04.243Z,4.32
2023-02-11T05:02:32.465Z,4.30
2023-02-11T05:05:00.581Z,4.32
2023-02-11T05:07:28.737Z,4.32
2023-02-11T05:09:56.912Z,4.29
2023-02-11T05:12:24.981Z,4.29
2023-02-11T05:14:53.053Z,4.27
2023-02-11T05:17:21.029Z,4.25
2023-02-11T05:19:49.086Z,4.22
2023-02-11T05:22:17.037Z,4.21
2023-02-11T05:24:45.030Z,4.22
2023-02-11T05:27:13.307Z,4.23
2023-02-11T05:29:41.468Z,4.24
2023-02-11T05:32:09.574Z,4.25
2023-02-11T05:34:37.821Z,4.26
2023-02-11T05:37:05.920Z,4.27
2023-02-11T05:39:33.822Z,4.27
2023-02-11T05:42:01.806Z,4.27
2023-02-11T05:44:29.821Z,4.25
2023-02-11T05:46:57.832Z,4.22
2023-02-11T05:49:25.934Z,4.21
2023-02-11T05:51:53.902Z,4.16
2023-02-11T05:54:22.114Z,4.14
2023-02-11T05:56:50.225Z,4.15
2023-02-11T05:59:18.418Z,4.18
2023-02-11T06:01:46.487Z,4.18
2023-02-11T06:04:14.503Z,4.17
2023-02-11T06:06:42.558Z,4.16
2023-02-11T06:09:11.935Z,4.14
2023-02-11T06:11:39.897Z,4.13
2023-02-11T06:14:08.224Z,4.14
2023-02-11T06:16:36.389Z,4.13
2023-02-11T06:19:04.527Z,4.10
2023-02-11T06:21:43.499Z,4.06
2023-02-11T06:24:12.870Z,4.00
2023-02-11T06:26:40.943Z,3.97
2023-02-11T06:29:09.080Z,3.96
2023-02-11T06:31:37.994Z,3.97
2023-02-11T06:34:06.269Z,3.97
2023-02-11T06:36:34.628Z,3.96
2023-02-11T06:39:03.474Z,3.96
2023-02-11T06:41:31.500Z,3.94
2023-02-11T06:44:00.091Z,3.96
2023-02-11T06:46:28.149Z,3.97
2023-02-11T06:48:56.624Z,3.96
2023-02-11T06:51:24.798Z,3.97
2023-02-11T06:53:52.761Z,3.98
2023-02-11T06:56:27.552Z,3.98
2023-02-11T06:58:56.279Z,3.99
2023-02-11T07:01:25.666Z,4.00
2023-02-11T07:03:54.769Z,4.02
2023-02-11T07:06:27.872Z,4.02
2023-02-11T07:08:56.751Z,4.04
2023-02-11T07:11:28.197Z,4.06
2023-02-11T07:14:01.354Z,4.06
2023-02-11T07:16:30.011Z,4.06
2023-02-11T07:18:58.416Z,4.08
2023-02-11T07:21:26.537Z,4.11
2023-02-11T07:23:55.025Z,4.14
2023-02-11T07:26:24.510Z,4.14
2023-02-11T07:28:53.300Z,4.16
2023-02-11T07:31:27.903Z,4.17
2023-02-11T07:34:00.077Z,4.18
2023-02-11T07:36:30.573Z,4.18
2023-02-11T07:38:58.901Z,4.19
2023-02-11T07:41:27.208Z,4.23
2023-02-11T07:43:55.968Z,4.25
2023-02-11T07:46:26.460Z,4.26
2023-02-11T07:48:55.580Z,4.26
2023-02-11T07:51:26.718Z,4.28
2023-02-11T07:53:56.127Z,4.28
2023-02-11T07:56:24.430Z,4.27
2023-02-11T07:58:52.987Z,4.27
2023-02-11T08:01:26.281Z,4.29
2023-02-11T08:03:58.966Z,4.29
2023-02-11T08:06:30.259Z,4.32
2023-02-11T08:09:03.120Z,4.35
2023-02-11T08:11:31.476Z,4.36
2023-02-11T08:13:59.524Z,4.35
2023-02-11T08:16:30.144Z,4.35
2023-02-11T08:19:01.203Z,4.31
2023-02-11T08:21:29.505Z,4.28
2023-02-11T08:23:57.688Z,4.27
2023-02-11T08:26:29.388Z,4.27
2023-02-11T08:28:59.079Z,4.26
2023-02-11T08:31:39.297Z,4.26
2023-02-11T08:34:08.072Z,4.25
2023-02-11T08:36:38.364Z,4.27
2023-02-11T08:39:19.186Z,4.31
2023-02-11T08:41:53.779Z,4.33
2023-02-11T08:44:23.075Z,4.37
2023-02-11T08:46:51.851Z,4.39
2023-02-11T08:49:20.280Z,4.43
2023-02-11T08:51:49.209Z,4.47
2023-02-11T08:54:17.279Z,4.47
2023-02-11T08:56:46.179Z,4.48
2023-02-11T08:59:15.657Z,4.47
2023-02-11T09:01:44.517Z,4.48
2023-02-11T09:04:13.153Z,4.46
2023-02-11T09:06:41.494Z,4.45
2023-02-11T09:09:13.750Z,4.44
2023-02-11T09:11:43.177Z,4.46
2023-02-11T09:14:20.518Z,4.47
2023-02-11T09:16:49.112Z,4.48
2023-02-11T09:19:18.235Z,4.49
2023-02-11T09:21:46.865Z,4.48
2023-02-11T09:24:15.177Z,4.49
2023-02-11T09:26:43.613Z,4.50
2023-02-11T09:29:11.684Z,4.49
2023-02-11T09:31:39.837Z,4.48
2023-02-11T09:34:08.015Z,4.52
2023-02-11T09:36:38.624Z,4.51
2023-02-11T09:39:09.992Z,4.53
2023-02-11T09:42:19.924Z,4.53
2023-02-11T09:44:48.100Z,4.50
2023-02-11T09:47:27.058Z,4.55
2023-02-11T09:50:02.499Z,4.57
2023-02-11T09:52:44.069Z,4.59
2023-02-11T09:55:21.974Z,4.62
2023-02-11T09:57:50.134Z,4.64
2023-02-11T10:00:43.334Z,4.68
2023-02-11T10:03:21.836Z,4.67
2023-02-11T10:05:52.566Z,4.65
2023-02-11T10:08:47.502Z,4.67
2023-02-11T10:11:31.194Z,4.63
2023-02-11T10:14:29.164Z,4.64
2023-02-11T10:17:28.057Z,4.60
2023-02-11T10:20:18.067Z,4.58
2023-02-11T10:22:50.143Z,4.60
2023-02-11T10:25:43.659Z,4.63
2023-02-11T10:28:17.150Z,4.63
2023-02-11T10:30:59.588Z,4.69
2023-02-11T10:33:36.937Z,4.72
2023-02-11T10:36:05.756Z,4.75
2023-02-11T10:38:34.103Z,4.80
2023-02-11T10:41:02.325Z,4.86
2023-02-11T10:43:32.132Z,4.91
2023-02-11T10:46:02.938Z,4.95
2023-02-11T10:48:41.976Z,4.99
2023-02-11T10:51:19.062Z,5.03
2023-02-11T10:54:19.483Z,5.06
2023-02-11T10:56:58.569Z,5.07
2023-02-11T10:59:30.996Z,5.14
2023-02-11T11:02:08.143Z,5.20
2023-02-11T11:04:45.821Z,5.25
2023-02-11T11:07:27.556Z,5.30
2023-02-11T11:10:00.382Z,5.35
2023-02-11T11:12:28.304Z,5.42
2023-02-11T11:15:01.931Z,5.50
2023-02-11T11:17:29.994Z,5.58
2023-02-11T11:20:35.675Z,5.65
2023-02-11T11:23:09.636Z,5.69
2023-02-11T11:25:41.935Z,5.78
2023-02-11T11:28:21.865Z,5.86
2023-02-11T11:30:50.855Z,5.93
2023-02-11T11:33:23.026Z,5.99
2023-02-11T11:36:11.640Z,6.05
2023-02-11T11:38:58.888Z,6.10
2023-02-11T11:41:30.879Z,6.14
2023-02-11T11:44:00.471Z,6.20
2023-02-11T11:46:32.064Z,6.24
2023-02-11T11:49:36.010Z,6.28
2023-02-11T11:52:19.678Z,6.29
2023-02-11T11:54:56.008Z,6.30
2023-02-11T11:57:28.863Z,6.32
2023-02-11T11:59:58.359Z,6.36
2023-02-11T12:03:08.509Z,6.42
2023-02-11T12:05:47.070Z,6.41
2023-02-11T12:08:46.180Z,6.46
2023-02-11T12:11:16.913Z,6.49
2023-02-11T12:14:03.719Z,6.55
2023-02-11T12:16:50.565Z,6.60
2023-02-11T12:19:45.754Z,6.68
2023-02-11T12:22:34.625Z,6.76
2023-02-11T12:25:05.227Z,6.84
2023-02-11T12:28:01.990Z,6.93
2023-02-11T12:30:54.526Z,7.01
2023-02-11T12:33:48.477Z,7.09
2023-02-11T12:36:41.343Z,7.16
2023-02-11T12:39:12.086Z,7.22
2023-02-11T12:42:34.512Z,7.29
2023-02-11T12:45:11.524Z,7.32
2023-02-11T12:48:05.783Z,7.39
2023-02-11T12:50:49.503Z,7.43
2023-02-11T12:53:49.638Z,7.49
2023-02-11T12:57:05.629Z,7.50
2023-02-11T12:59:58.943Z,7.51
2023-02-11T13:02:41.927Z,7.53
2023-02-11T13:05:49.594Z,7.56
2023-02-11T13:08:35.490Z,7.57
2023-02-11T13:11:16.177Z,7.61
2023-02-11T13:13:53.245Z,7.66
2023-02-11T13:16:31.119Z,7.70
2023-02-11T13:19:07.319Z,7.76
2023-02-11T13:21:54.420Z,7.78
2023-02-11T13:24:41.039Z,7.79
2023-02-11T13:27:27.430Z,7.78
2023-02-11T13:30:04.420Z,7.79
2023-02-11T13:32:54.238Z,7.83
2023-02-11T13:35:40.237Z,7.87
2023-02-11T13:38:17.365Z,7.89
2023-02-11T13:40:45.956Z,7.91
2023-02-11T13:43:26.125Z,7.95
2023-02-11T13:46:10.436Z,7.97
2023-02-11T13:48:46.914Z,7.97
2023-02-11T13:51:34.537Z,7.99
2023-02-11T13:54:03.950Z,8.00
2023-02-11T13:56:38.079Z,8.04
2023-02-11T13:59:27.493Z,8.08
2023-02-11T14:02:39.776Z,8.13
2023-02-11T14:05:26.125Z,8.11
2023-02-11T14:08:28.184Z,8.15
2023-02-11T14:11:01.022Z,8.17
2023-02-11T14:13:31.917Z,8.22
2023-02-11T14:16:36.522Z,8.24
2023-02-11T14:19:06.519Z,8.22
2023-02-11T14:21:38.251Z,8.27
2023-02-11T14:24:07.245Z,8.30
2023-02-11T14:26:58.628Z,8.32
2023-02-11T14:29:38.703Z,8.31
2023-02-11T14:32:41.073Z,8.30
2023-02-11T14:35:20.897Z,8.25
2023-02-11T14:37:56.672Z,8.25
2023-02-11T14:40:49.295Z,8.25
2023-02-11T14:43:24.438Z,8.24
2023-02-11T14:45:55.946Z,8.23
2023-02-11T14:48:35.165Z,8.25
2023-02-11T14:51:25.875Z,8.25
2023-02-11T14:53:59.393Z,8.23
2023-02-11T14:56:31.261Z,8.20
2023-02-11T14:58:59.240Z,8.17
2023-02-11T15:01:35.849Z,8.12
2023-02-11T15:04:06.510Z,8.06
2023-02-11T15:06:39.454Z,8.03
2023-02-11T15:09:18.634Z,7.99
2023-02-11T15:11:51.297Z,7.91
2023-02-11T15:14:28.496Z,7.85
2023-02-11T15:17:09.752Z,7.79
2023-02-11T15:19:45.020Z,7.73
2023-02-11T15:22:34.393Z,7.68
2023-02-11T15:25:16.816Z,7.64
2023-02-11T15:27:50.202Z,7.63
2023-02-11T15:30:25.022Z,7.60
2023-02-11T15:33:00.179Z,7.54
2023-02-11T15:35:36.830Z,7.49
2023-02-11T15:38:05.815Z,7.43
2023-02-11T15:40:36.573Z,7.38
2023-02-11T15:43:07.771Z,7.33
2023-02-11T15:45:40.316Z,7.25
2023-02-11T15:48:20.286Z,7.17
2023-02-11T15:50:54.451Z,7.07
2023-02-11T15:53:28.707Z,7.02
2023-02-11T15:56:25.610Z,6.96
2023-02-11T15:58:56.114Z,6.85
2023-02-11T16:01:34.860Z,6.77
2023-02-11T16:04:05.486Z,6.72
2023-02-11T16:06:42.168Z,6.68
2023-02-11T16:09:12.766Z,6.60
2023-02-11T16:11:46.521Z,6.54
2023-02-11T16:14:42.393Z,6.48
2023-02-11T16:17:25.034Z,6.43
2023-02-11T16:19:54.663Z,6.38
2023-02-11T16:22:27.645Z,6.37
2023-02-11T16:24:59.628Z,6.34
2023-02-11T16:27:34.152Z,6.30
2023-02-11T16:30:02.894Z,6.26
2023-02-11T16:32:31.643Z,6.25
2023-02-11T16:35:01.499Z,6.23
2023-02-11T16:37:29.562Z,6.17
2023-02-11T16:39:58.363Z,6.15
2023-02-11T16:42:26.477Z,6.12
2023-02-11T16:44:54.486Z,6.05
2023-02-11T16:47:27.891Z,5.99
2023-02-11T16:49:56.300Z,5.96
2023-02-11T16:52:24.729Z,5.92
2023-02-11T16:54:53.619Z,5.88
2023-02-11T16:57:24.784Z,5.83
2023-02-11T16:59:53.379Z,5.77
2023-02-11T17:02:34.023Z,5.70
2023-02-11T17:05:05.353Z,5.62
2023-02-11T17:07:33.860Z,5.59
2023-02-11T17:10:02.274Z,5.59
2023-02-11T17:12:30.298Z,5.59
2023-02-11T17:14:58.279Z,5.55
2023-02-11T17:17:26.329Z,5.48
2023-02-11T17:19:54.265Z,5.38
2023-02-11T17:22:22.364Z,5.31
2023-02-11T17:24:51.065Z,5.25
2023-02-11T17:27:19.038Z,5.11
2023-02-11T17:29:47.202Z,5.02
2023-02-11T17:32:15.253Z,4.97
2023-02-11T17:34:43.341Z,4.90
2023-02-11T17:37:11.334Z,4.76
2023-02-11T17:39:40.075Z,4.67
2023-02-11T17:42:08.918Z,4.57
2023-02-11T17:44:37.457Z,4.55
2023-02-11T17:47:05.528Z,4.55
2023-02-11T17:49:33.721Z,4.56
2023-02-11T17:52:01.890Z,4.55
2023-02-11T17:54:30.085Z,4.53
2023-02-11T17:56:58.640Z,4.51
2023-02-11T17:59:29.976Z,4.48
2023-02-11T18:01:58.160Z,4.47
2023-02-11T18:04:26.304Z,4.43
2023-02-11T18:06:54.394Z,4.35
2023-02-11T18:09:22.417Z,4.32
2023-02-11T18:11:52.643Z,4.32
2023-02-11T18:14:23.015Z,4.31
2023-02-11T18:16:52.682Z,4.29
2023-02-11T18:19:20.891Z,4.29
2023-02-11T18:21:50.521Z,4.27
2023-02-11T18:24:18.985Z,4.24
2023-02-11T18:26:47.052Z,4.19
2023-02-11T18:29:15.120Z,4.18
2023-02-11T18:31:43.148Z,4.20
2023-02-11T18:34:11.468Z,4.21
2023-02-11T18:36:39.743Z,4.22
2023-02-11T18:39:08.039Z,4.20
2023-02-11T18:41:36.037Z,4.20
2023-02-11T18:44:05.302Z,4.19
2023-02-11T18:46:33.310Z,4.20
2023-02-11T18:49:02.052Z,4.22
2023-02-11T18:51:32.572Z,4.24
2023-02-11T18:54:01.508Z,4.25
2023-02-11T18:56:29.611Z,4.24
2023-02-11T18:58:58.385Z,4.22
2023-02-11T19:01:28.071Z,4.20
2023-02-11T19:03:58.616Z,4.18
2023-02-11T19:06:29.046Z,4.17
2023-02-11T19:09:00.202Z,4.17
2023-02-11T19:11:49.986Z,4.17
2023-02-11T19:14:22.173Z,4.15
2023-02-11T19:16:52.975Z,4.09
2023-02-11T19:19:25.711Z,4.06
2023-02-11T19:21:54.847Z,4.04
2023-02-11T19:24:24.252Z,4.06
2023-02-11T19:26:57.066Z,4.07
2023-02-11T19:29:25.617Z,4.11
2023-02-11T19:31:54.475Z,4.10
2023-02-11T19:34:22.543Z,4.09
2023-02-11T19:36:51.052Z,4.09
2023-02-11T19:39:19.255Z,4.08
2023-02-11T19:41:47.434Z,4.05
2023-02-11T19:44:16.293Z,4.03
2023-02-11T19:46:46.107Z,4.01
2023-02-11T19:49:17.896Z,4.01
2023-02-11T19:51:46.835Z,4.04
2023-02-11T19:54:14.846Z,4.04
2023-02-11T19:56:44.883Z,4.05
2023-02-11T19:59:13.967Z,4.07
2023-02-11T20:01:42.391Z,4.09
2023-02-11T20:04:10.917Z,4.09
2023-02-11T20:06:38.986Z,4.09
2023-02-11T20:09:11.322Z,4.11
2023-02-11T20:11:40.156Z,4.09
2023-02-11T20:14:10.686Z,4.08
2023-02-11T20:16:48.282Z,4.09
2023-02-11T20:19:20.562Z,4.10
2023-02-11T20:21:52.253Z,4.09
2023-02-11T20:24:21.732Z,4.11
2023-02-11T20:26:49.902Z,4.08
2023-02-11T20:29:18.623Z,4.05
2023-02-11T20:31:46.994Z,4.04
2023-02-11T20:34:17.760Z,4.06
2023-02-11T20:36:52.126Z,4.07
2023-02-11T20:39:22.560Z,4.06
2023-02-11T20:41:52.576Z,4.01
2023-02-11T20:44:24.446Z,3.99
2023-02-11T20:46:54.566Z,3.96
2023-02-11T20:49:24.977Z,3.97
2023-02-11T20:51:54.046Z,3.93
2023-02-11T20:54:23.571Z,3.91
2023-02-11T20:56:53.893Z,3.87
2023-02-11T20:59:24.682Z,3.83
2023-02-11T21:01:55.706Z,3.84
2023-02-11T21:04:30.478Z,3.82
2023-02-11T21:07:01.635Z,3.79
2023-02-11T21:09:33.357Z,3.77
2023-02-11T21:12:01.993Z,3.74
2023-02-11T21:14:30.448Z,3.72
2023-02-11T21:16:58.999Z,3.74
2023-02-11T21:19:27.351Z,3.73
2023-02-11T21:21:57.412Z,3.67
2023-02-11T21:24:25.674Z,3.62
2023-02-11T21:26:53.835Z,3.58
2023-02-11T21:29:22.388Z,3.54
2023-02-11T21:31:51.508Z,3.54
2023-02-11T21:34:20.280Z,3.55
2023-02-11T21:36:51.208Z,3.55
2023-02-11T21:39:20.491Z,3.54
2023-02-11T21:41:48.770Z,3.53
2023-02-11T21:44:16.846Z,3.53
2023-02-11T21:46:44.868Z,3.56
2023-02-11T21:49:12.992Z,3.58
2023-02-11T21:51:40.953Z,3.60
2023-02-11T21:54:11.303Z,3.62
2023-02-11T21:56:39.300Z,3.62
2023-02-11T21:59:07.461Z,3.67
2023-02-11T22:01:36.022Z,3.70
2023-02-11T22:04:04.303Z,3.70
2023-02-11T22:06:34.637Z,3.71
2023-02-11T22:09:05.674Z,3.77
2023-02-11T22:11:33.692Z,3.80
2023-02-11T22:14:01.750Z,3.86
2023-02-11T22:16:30.848Z,3.92
2023-02-11T22:18:59.779Z,3.95
2023-02-11T22:21:28.193Z,3.96
2023-02-11T22:23:56.589Z,3.96
2023-02-11T22:26:26.590Z,3.97
2023-02-11T22:28:55.565Z,3.98
2023-02-11T22:31:30.169Z,4.00
2023-02-11T22:33:59.096Z,4.01
2023-02-11T22:36:30.115Z,4.00
2023-02-11T22:39:08.386Z,4.00
2023-02-11T22:41:38.452Z,3.98
2023-02-11T22:44:06.766Z,3.96
2023-02-11T22:46:35.559Z,3.97
2023-02-11T22:49:05.291Z,3.98
2023-02-11T22:51:33.898Z,4.01
2023-02-11T22:54:05.039Z,4.03
2023-02-11T22:56:35.020Z,4.03
2023-02-11T22:59:06.305Z,3.97
2023-02-11T23:01:35.167Z,3.92
2023-02-11T23:04:05.776Z,3.90
2023-02-11T23:06:34.807Z,3.95
2023-02-11T23:09:04.786Z,3.98
2023-02-11T23:11:33.601Z,4.04
2023-02-11T23:14:02.594Z,4.05
2023-02-11T23:16:33.059Z,4.01
2023-02-11T23:19:05.205Z,3.94
2023-02-11T23:21:35.889Z,3.89
2023-02-11T23:24:08.174Z,3.85
2023-02-11T23:26:39.405Z,3.85
2023-02-11T23:29:08.153Z,3.82
2023-02-11T23:31:39.999Z,3.78
2023-02-11T23:34:08.870Z,3.78
2023-02-11T23:36:37.686Z,3.81
2023-02-11T23:39:06.099Z,3.80
2023-02-11T23:41:34.152Z,3.81
2023-02-11T23:44:02.237Z,3.80
2023-02-11T23:46:30.295Z,3.81
2023-02-11T23:48:58.329Z,3.83
2023-02-11T23:51:26.292Z,3.86
2023-02-11T23:53:56.416Z,3.88
2023-02-11T23:56:27.835Z,3.92
2023-02-11T23:58:58.765Z,3.89
